Wetterdaten: Woche 13.05.13 - 19.05.13 (KW20)
Datum Zeit Temp. A. Feuchte A. Luftdruck Regen Wind Richtung Taupunkt Windchill Windben
13.05.2013 00:00 10,9 C 71 % 1015,6 hPa 0,0 l/m 15,7 km/h N 5,8 C 6,0 C 36,2 km/h
13.05.2013 01:00 10,7 C 69 % 1015,9 hPa 0,0 l/m 15,8 km/h N 5,3 C 5,7 C 35,8 km/h
13.05.2013 02:00 10,2 C 70 % 1016,0 hPa 0,0 l/m 16,1 km/h N 4,9 C 4,9 C 34,6 km/h
13.05.2013 03:00 9,6 C 71 % 1016,1 hPa 0,0 l/m 14,5 km/h N 4,5 C 4,8 C 32,6 km/h
13.05.2013 04:00 9,1 C 72 % 1016,3 hPa 0,0 l/m 14,8 km/h N 4,3 C 4,2 C 35,0 km/h
13.05.2013 05:00 8,8 C 72 % 1016,8 hPa 0,0 l/m 14,1 km/h N 4,0 C 4,1 C 32,6 km/h
13.05.2013 06:00 8,8 C 72 % 1017,3 hPa 0,0 l/m 14,2 km/h N 4,0 C 4,0 C 36,2 km/h
13.05.2013 07:00 9,8 C 66 % 1017,7 hPa 0,0 l/m 14,5 km/h N 3,8 C 5,1 C 31,8 km/h
13.05.2013 08:00 10,9 C 64 % 1018,0 hPa 0,0 l/m 13,4 km/h N 4,2 C 6,9 C 32,2 km/h
13.05.2013 09:00 11,8 C 63 % 1017,8 hPa 0,0 l/m 13,7 km/h N 4,9 C 7,9 C 34,6 km/h
13.05.2013 10:00 12,7 C 61 % 1017,8 hPa 0,0 l/m 13,0 km/h N 5,4 C 9,2 C 30,6 km/h
13.05.2013 11:00 13,7 C 57 % 1017,4 hPa 0,0 l/m 13,0 km/h N 5,4 C 10,4 C 30,2 km/h
13.05.2013 12:00 14,4 C 57 % 1017,0 hPa 0,0 l/m 12,0 km/h N 5,9 C 11,6 C 26,5 km/h
13.05.2013 13:00 15,5 C 55 % 1016,5 hPa 0,0 l/m 11,3 km/h N 6,3 C 13,1 C 26,1 km/h
13.05.2013 14:00 15,5 C 51 % 1016,0 hPa 0,0 l/m 9,7 km/h N 5,4 C 13,8 C 24,5 km/h
13.05.2013 15:00 15,8 C 50 % 1015,9 hPa 0,0 l/m 8,4 km/h N 5,4 C 14,7 C 29,0 km/h
13.05.2013 16:00 13,9 C 59 % 1016,2 hPa 0,0 l/m 6,8 km/h N 6,1 C 13,3 C 26,1 km/h
13.05.2013 17:00 14,3 C 55 % 1015,9 hPa 0,0 l/m 11,0 km/h N 5,4 C 11,9 C 29,8 km/h
13.05.2013 18:00 13,1 C 58 % 1016,1 hPa 0,0 l/m 12,3 km/h N 5,1 C 10,0 C 29,3 km/h
13.05.2013 19:00 11,7 C 64 % 1016,0 hPa 0,0 l/m 12,5 km/h N 5,1 C 8,3 C 29,8 km/h
13.05.2013 20:00 10,6 C 73 % 1016,2 hPa 0,0 l/m 9,8 km/h N 5,9 C 8,6 C 23,7 km/h
13.05.2013 21:00 10,2 C 77 % 1016,6 hPa 0,0 l/m 8,0 km/h N 6,3 C 9,0 C 21,3 km/h
13.05.2013 22:00 9,5 C 83 % 1016,5 hPa 1,6 l/m 7,0 km/h N 6,8 C 9,0 C 19,7 km/h
13.05.2013 23:00 9,2 C 84 % 1016,3 hPa 1,8 l/m 7,1 km/h N 6,6 C 8,5 C 18,9 km/h
14.05.2013 00:00 8,9 C 84 % 1016,1 hPa 0,3 l/m 5,3 km/h N 6,4 C 8,9 C 15,7 km/h
14.05.2013 01:00 9,3 C 84 % 1016,0 hPa 1,3 l/m 7,1 km/h N 6,6 C 8,5 C 19,7 km/h
14.05.2013 02:00 9,4 C 82 % 1015,7 hPa 0,3 l/m 2,4 km/h N 6,6 C 9,4 C 9,2 km/h
14.05.2013 03:00 9,6 C 81 % 1015,5 hPa 0,0 l/m 0,1 km/h N 6,5 C 9,6 C 2,4 km/h
14.05.2013 04:00 9,6 C 81 % 1015,2 hPa 0,0 l/m 0,0 km/h N 6,5 C 9,6 C 0,0 km/h
14.05.2013 05:00 9,5 C 81 % 1015,2 hPa 0,0 l/m 0,1 km/h N 6,4 C 9,5 C 2,0 km/h
14.05.2013 06:00 9,8 C 80 % 1015,3 hPa 0,0 l/m 0,2 km/h N 6,5 C 9,8 C 2,4 km/h
14.05.2013 07:00 10,7 C 80 % 1015,3 hPa 0,0 l/m 0,8 km/h N 7,3 C 10,7 C 5,6 km/h
14.05.2013 08:00 11,6 C 82 % 1015,5 hPa 0,0 l/m 1,8 km/h N 8,7 C 11,6 C 6,9 km/h
14.05.2013 09:00 14,7 C 75 % 1015,1 hPa 0,0 l/m 7,0 km/h N 10,3 C 14,4 C 17,7 km/h
14.05.2013 10:00 15,8 C 70 % 1015,0 hPa 0,3 l/m 8,3 km/h N 10,4 C 14,8 C 19,7 km/h
14.05.2013 11:00 17,1 C 61 % 1014,8 hPa 0,0 l/m 7,1 km/h N 9,5 C 16,7 C 18,9 km/h
14.05.2013 12:00 18,4 C 59 % 1014,4 hPa 0,0 l/m 3,8 km/h N 10,1 C 18,4 C 12,5 km/h
14.05.2013 13:00 18,6 C 51 % 1013,8 hPa 0,0 l/m 4,3 km/h N 8,3 C 18,6 C 13,7 km/h
14.05.2013 14:00 19,2 C 53 % 1013,2 hPa 0,0 l/m 4,2 km/h N 9,3 C 19,2 C 14,9 km/h
14.05.2013 15:00 19,5 C 50 % 1012,5 hPa 0,0 l/m 4,8 km/h N 8,8 C 19,5 C 15,7 km/h
14.05.2013 16:00 19,7 C 50 % 1011,8 hPa 0,0 l/m 3,2 km/h N 9,0 C 19,7 C 11,7 km/h
14.05.2013 17:00 20,0 C 54 % 1011,4 hPa 0,0 l/m 1,8 km/h N 10,3 C 20,0 C 8,0 km/h
14.05.2013 18:00 20,1 C 51 % 1011,3 hPa 0,0 l/m 1,8 km/h N 9,7 C 20,1 C 8,9 km/h
14.05.2013 19:00 19,8 C 52 % 1011,2 hPa 0,0 l/m 0,8 km/h N 9,5 C 19,8 C 5,2 km/h
14.05.2013 20:00 18,0 C 58 % 1011,0 hPa 0,0 l/m 0,0 km/h N 9,6 C 18,0 C 0,0 km/h
14.05.2013 21:00 14,7 C 70 % 1011,1 hPa 0,0 l/m 0,0 km/h N 9,1 C 14,7 C 0,0 km/h
14.05.2013 22:00 12,3 C 78 % 1011,2 hPa 0,0 l/m 0,0 km/h N 8,5 C 12,3 C 0,0 km/h
14.05.2013 23:00 10,9 C 81 % 1010,9 hPa 0,0 l/m 0,0 km/h N 7,7 C 10,9 C 0,0 km/h
15.05.2013 00:00 9,8 C 83 % 1010,6 hPa 0,0 l/m 0,0 km/h N 7,0 C 9,8 C 0,0 km/h
15.05.2013 01:00 8,9 C 84 % 1010,2 hPa 0,0 l/m 0,0 km/h N 6,4 C 8,9 C 0,0 km/h
15.05.2013 02:00 8,6 C 83 % 1009,7 hPa 0,0 l/m 0,0 km/h N 5,9 C 8,6 C 0,0 km/h
15.05.2013 03:00 8,3 C 82 % 1009,1 hPa 0,0 l/m 0,0 km/h N 5,4 C 8,3 C 0,0 km/h
15.05.2013 04:00 7,7 C 82 % 1008,6 hPa 0,0 l/m 0,0 km/h N 4,8 C 7,7 C 1,1 km/h
15.05.2013 05:00 7,4 C 82 % 1008,5 hPa 0,0 l/m 0,0 km/h N 4,4 C 7,4 C 0,8 km/h
15.05.2013 06:00 7,7 C 80 % 1008,3 hPa 0,0 l/m 0,0 km/h N 4,4 C 7,7 C 0,0 km/h
15.05.2013 07:00 10,4 C 77 % 1008,0 hPa 0,0 l/m 1,6 km/h N 6,6 C 10,4 C 7,6 km/h
15.05.2013 08:00 15,1 C 74 % 1007,7 hPa 0,0 l/m 6,5 km/h N 10,4 C 14,9 C 18,1 km/h
15.05.2013 09:00 18,3 C 62 % 1007,4 hPa 0,0 l/m 9,4 km/h N 10,9 C 17,0 C 24,1 km/h
15.05.2013 10:00 19,4 C 58 % 1007,2 hPa 0,0 l/m 13,1 km/h N 10,9 C 17,0 C 32,2 km/h
15.05.2013 11:00 20,5 C 54 % 1006,8 hPa 0,0 l/m 13,6 km/h N 10,9 C 18,2 C 33,8 km/h
15.05.2013 12:00 21,5 C 53 % 1006,3 hPa 0,0 l/m 15,1 km/h N 11,4 C 19,1 C 34,6 km/h
15.05.2013 13:00 22,3 C 50 % 1005,8 hPa 0,0 l/m 13,6 km/h N 11,3 C 20,4 C 34,2 km/h
15.05.2013 14:00 22,8 C 48 % 1005,5 hPa 0,0 l/m 15,8 km/h N 11,0 C 20,5 C 34,6 km/h
15.05.2013 15:00 22,8 C 48 % 1004,8 hPa 0,0 l/m 15,5 km/h N 11,3 C 20,5 C 34,6 km/h
15.05.2013 16:00 22,8 C 49 % 1004,5 hPa 0,0 l/m 14,4 km/h N 11,4 C 20,7 C 31,0 km/h
15.05.2013 17:00 22,8 C 49 % 1004,1 hPa 0,0 l/m 12,6 km/h N 11,5 C 21,1 C 31,4 km/h
15.05.2013 18:00 22,7 C 50 % 1004,0 hPa 0,0 l/m 12,0 km/h N 11,6 C 21,1 C 31,8 km/h
15.05.2013 19:00 21,8 C 52 % 1004,0 hPa 0,0 l/m 10,3 km/h N 11,5 C 20,6 C 26,6 km/h
15.05.2013 20:00 20,4 C 56 % 1004,2 hPa 0,0 l/m 7,1 km/h N 11,2 C 20,1 C 19,3 km/h
15.05.2013 21:00 19,1 C 60 % 1004,5 hPa 0,0 l/m 4,2 km/h N 11,0 C 19,0 C 14,1 km/h
15.05.2013 22:00 17,6 C 65 % 1004,6 hPa 0,0 l/m 0,6 km/h N 10,9 C 17,6 C 5,6 km/h
15.05.2013 23:00 16,5 C 69 % 1004,7 hPa 0,0 l/m 0,8 km/h N 10,9 C 16,5 C 6,4 km/h
16.05.2013 00:00 15,5 C 73 % 1004,6 hPa 0,0 l/m 1,3 km/h N 10,6 C 15,5 C 5,6 km/h
16.05.2013 01:00 15,0 C 74 % 1004,3 hPa 0,0 l/m 3,1 km/h N 10,5 C 15,0 C 10,5 km/h
16.05.2013 02:00 14,6 C 76 % 1004,2 hPa 0,0 l/m 2,1 km/h N 10,4 C 14,6 C 6,8 km/h
16.05.2013 03:00 13,2 C 79 % 1004,0 hPa 0,0 l/m 0,0 km/h N 9,5 C 13,2 C 0,4 km/h
16.05.2013 04:00 12,1 C 82 % 1003,8 hPa 0,0 l/m 0,0 km/h N 9,0 C 12,1 C 0,4 km/h
16.05.2013 05:00 12,1 C 83 % 1003,8 hPa 0,0 l/m 1,2 km/h N 9,3 C 12,1 C 5,2 km/h
16.05.2013 06:00 12,6 C 83 % 1003,9 hPa 0,0 l/m 3,2 km/h N 9,8 C 12,6 C 10,1 km/h
16.05.2013 07:00 13,9 C 82 % 1003,8 hPa 0,0 l/m 4,6 km/h N 10,8 C 13,8 C 14,1 km/h
16.05.2013 08:00 17,0 C 73 % 1003,3 hPa 0,0 l/m 5,7 km/h N 12,1 C 16,9 C 18,5 km/h
16.05.2013 09:00 19,5 C 65 % 1003,0 hPa 0,0 l/m 7,5 km/h N 12,6 C 19,1 C 22,1 km/h
16.05.2013 10:00 20,8 C 57 % 1002,9 hPa 0,0 l/m 12,4 km/h N 12,0 C 18,9 C 32,2 km/h
16.05.2013 11:00 21,2 C 57 % 1002,6 hPa 0,0 l/m 13,1 km/h N 12,2 C 19,2 C 32,2 km/h
16.05.2013 12:00 21,6 C 58 % 1002,6 hPa 0,0 l/m 13,3 km/h N 13,1 C 19,6 C 35,0 km/h
16.05.2013 13:00 22,6 C 53 % 1002,3 hPa 0,0 l/m 15,7 km/h N 12,4 C 20,3 C 36,6 km/h
16.05.2013 14:00 23,1 C 52 % 1002,1 hPa 0,0 l/m 14,0 km/h N 12,7 C 21,2 C 35,0 km/h
16.05.2013 15:00 23,4 C 50 % 1001,5 hPa 0,0 l/m 15,0 km/h N 12,4 C 21,3 C 39,0 km/h
16.05.2013 16:00 23,3 C 49 % 1001,1 hPa 0,0 l/m 15,7 km/h N 11,9 C 21,1 C 37,8 km/h
16.05.2013 17:00 23,0 C 50 % 1000,8 hPa 0,0 l/m 12,4 km/h N 11,9 C 21,4 C 30,6 km/h
16.05.2013 18:00 22,4 C 51 % 1001,0 hPa 0,0 l/m 7,0 km/h N 11,8 C 22,1 C 21,3 km/h
16.05.2013 19:00 20,5 C 54 % 1001,6 hPa 0,0 l/m 5,5 km/h N 10,8 C 20,3 C 22,1 km/h
16.05.2013 20:00 18,7 C 61 % 1002,1 hPa 0,0 l/m 7,4 km/h N 10,9 C 18,2 C 21,3 km/h
16.05.2013 21:00 17,9 C 65 % 1002,3 hPa 0,0 l/m 5,8 km/h N 11,1 C 17,8 C 19,3 km/h
16.05.2013 22:00 17,4 C 66 % 1002,0 hPa 0,0 l/m 6,9 km/h N 11,0 C 17,1 C 17,7 km/h
16.05.2013 23:00 16,9 C 68 % 1002,1 hPa 0,0 l/m 3,4 km/h N 11,0 C 16,9 C 12,9 km/h
17.05.2013 00:00 16,2 C 72 % 1001,8 hPa 0,0 l/m 3,0 km/h N 11,1 C 16,2 C 13,3 km/h
17.05.2013 01:00 15,6 C 77 % 1001,5 hPa 0,0 l/m 1,1 km/h N 11,4 C 15,6 C 8,0 km/h
17.05.2013 02:00 15,1 C 80 % 1000,7 hPa 0,0 l/m 4,2 km/h N 11,6 C 15,1 C 14,9 km/h
17.05.2013 03:00 14,8 C 81 % 1000,6 hPa 0,0 l/m 7,0 km/h N 11,6 C 14,4 C 19,7 km/h
17.05.2013 04:00 14,5 C 82 % 1000,5 hPa 0,0 l/m 4,7 km/h N 11,4 C 14,4 C 14,9 km/h
17.05.2013 05:00 14,3 C 82 % 1000,7 hPa 0,0 l/m 4,3 km/h N 11,3 C 14,3 C 12,5 km/h
17.05.2013 06:00 14,1 C 83 % 1001,0 hPa 0,0 l/m 4,3 km/h N 11,1 C 14,1 C 14,1 km/h
17.05.2013 07:00 14,7 C 83 % 1001,2 hPa 0,0 l/m 4,8 km/h N 11,8 C 14,7 C 15,7 km/h
17.05.2013 08:00 16,8 C 79 % 1001,2 hPa 0,0 l/m 7,3 km/h N 13,1 C 16,1 C 20,5 km/h
17.05.2013 09:00 19,2 C 67 % 1001,0 hPa 0,0 l/m 11,8 km/h N 12,8 C 17,3 C 27,0 km/h
17.05.2013 10:00 19,0 C 71 % 1001,3 hPa 0,0 l/m 11,3 km/h N 13,6 C 17,1 C 26,6 km/h
17.05.2013 11:00 18,0 C 75 % 1001,7 hPa 0,0 l/m 9,7 km/h N 13,4 C 16,6 C 23,7 km/h
17.05.2013 12:00 18,7 C 72 % 1001,9 hPa 0,0 l/m 9,6 km/h N 13,5 C 17,4 C 22,1 km/h
17.05.2013 13:00 20,3 C 64 % 1001,8 hPa 0,0 l/m 9,2 km/h N 13,3 C 19,3 C 23,7 km/h
17.05.2013 14:00 21,1 C 61 % 1001,7 hPa 0,0 l/m 11,7 km/h N 13,4 C 19,4 C 28,6 km/h
17.05.2013 15:00 21,5 C 61 % 1001,7 hPa 0,0 l/m 12,5 km/h N 13,7 C 19,6 C 31,4 km/h
17.05.2013 16:00 21,4 C 63 % 1001,6 hPa 0,0 l/m 11,8 km/h N 14,1 C 19,7 C 26,5 km/h
17.05.2013 17:00 20,7 C 65 % 1001,6 hPa 0,0 l/m 7,4 km/h N 13,8 C 20,3 C 21,7 km/h
17.05.2013 18:00 19,5 C 71 % 1001,4 hPa 0,0 l/m 6,1 km/h N 14,0 C 19,4 C 15,7 km/h
17.05.2013 19:00 18,7 C 74 % 1001,4 hPa 0,0 l/m 6,2 km/h N 13,8 C 18,6 C 16,1 km/h
17.05.2013 20:00 17,9 C 75 % 1001,6 hPa 0,0 l/m 4,5 km/h N 13,5 C 17,9 C 14,1 km/h
17.05.2013 21:00 17,1 C 79 % 1001,6 hPa 0,0 l/m 3,5 km/h N 13,4 C 17,1 C 11,7 km/h
17.05.2013 22:00 16,6 C 82 % 1001,6 hPa 2,3 l/m 1,4 km/h N 13,6 C 16,6 C 7,2 km/h
17.05.2013 23:00 16,0 C 81 % 1001,6 hPa 0,0 l/m 3,0 km/h N 12,7 C 16,0 C 10,5 km/h
18.05.2013 00:00 15,5 C 79 % 1001,5 hPa 0,0 l/m 2,5 km/h N 11,9 C 15,5 C 9,6 km/h
18.05.2013 01:00 15,0 C 79 % 1001,9 hPa 0,0 l/m 0,8 km/h N 11,4 C 15,0 C 5,6 km/h
18.05.2013 02:00 14,4 C 79 % 1002,6 hPa 0,0 l/m 0,0 km/h N 10,8 C 14,4 C 0,4 km/h
18.05.2013 03:00 13,9 C 79 % 1003,2 hPa 0,0 l/m 0,1 km/h N 10,3 C 13,9 C 1,6 km/h
18.05.2013 04:00 13,9 C 77 % 1004,1 hPa 0,0 l/m 0,4 km/h N 10,0 C 13,9 C 4,0 km/h
18.05.2013 05:00 14,0 C 77 % 1004,8 hPa 0,0 l/m 0,1 km/h N 10,0 C 14,0 C 1,6 km/h
18.05.2013 06:00 14,0 C 77 % 1005,9 hPa 0,0 l/m 0,1 km/h N 10,0 C 14,0 C 5,3 km/h
18.05.2013 07:00 14,2 C 77 % 1007,1 hPa 0,0 l/m 0,0 km/h N 10,2 C 14,2 C 5,6 km/h
18.05.2013 08:00 14,6 C 80 % 1008,0 hPa 0,0 l/m 0,8 km/h N 11,0 C 14,6 C 8,0 km/h
18.05.2013 09:00 16,8 C 76 % 1009,1 hPa 0,0 l/m 1,6 km/h N 12,4 C 16,8 C 11,3 km/h
18.05.2013 10:00 18,4 C 69 % 1009,6 hPa 0,0 l/m 1,6 km/h N 12,6 C 18,4 C 8,1 km/h
18.05.2013 11:00 19,8 C 61 % 1010,1 hPa 0,0 l/m 1,6 km/h N 12,0 C 19,8 C 8,9 km/h
18.05.2013 12:00 20,3 C 67 % 1010,5 hPa 0,0 l/m 3,2 km/h N 13,9 C 20,3 C 12,9 km/h
18.05.2013 13:00 20,6 C 62 % 1010,8 hPa 0,0 l/m 1,6 km/h N 13,0 C 20,6 C 11,3 km/h
18.05.2013 14:00 18,4 C 73 % 1011,5 hPa 1,3 l/m 4,0 km/h N 13,4 C 18,4 C 18,5 km/h
18.05.2013 15:00 18,2 C 79 % 1011,1 hPa 0,0 l/m 3,2 km/h N 14,4 C 18,2 C 10,5 km/h
18.05.2013 16:00 19,6 C 73 % 1010,6 hPa 0,0 l/m 1,6 km/h N 14,6 C 19,6 C 8,0 km/h
18.05.2013 17:00 21,3 C 61 % 1010,0 hPa 0,0 l/m 1,1 km/h N 13,4 C 21,3 C 9,7 km/h
18.05.2013 18:00 22,7 C 48 % 1009,4 hPa 0,0 l/m 6,3 km/h N 10,9 C 22,4 C 18,5 km/h
18.05.2013 19:00 22,2 C 48 % 1009,3 hPa 0,0 l/m 6,4 km/h N 10,5 C 22,1 C 18,1 km/h
18.05.2013 20:00 20,6 C 53 % 1009,0 hPa 0,0 l/m 1,7 km/h N 10,5 C 20,6 C 10,9 km/h
18.05.2013 21:00 17,5 C 61 % 1009,1 hPa 0,0 l/m 0,1 km/h N 9,9 C 17,5 C 4,4 km/h
18.05.2013 22:00 15,6 C 66 % 1009,2 hPa 0,0 l/m 0,0 km/h N 9,3 C 15,6 C 0,4 km/h
18.05.2013 23:00 14,0 C 71 % 1009,0 hPa 0,0 l/m 0,0 km/h N 8,7 C 14,0 C 0,0 km/h
19.05.2013 00:00 12,5 C 76 % 1008,7 hPa 0,0 l/m 0,2 km/h N 8,3 C 12,5 C 3,6 km/h
19.05.2013 01:00 11,0 C 80 % 1008,5 hPa 0,0 l/m 0,0 km/h N 7,6 C 11,0 C 0,4 km/h
19.05.2013 02:00 10,0 C 83 % 1008,7 hPa 0,0 l/m 0,1 km/h N 7,2 C 10,0 C 2,4 km/h
19.05.2013 03:00 9,5 C 83 % 1008,3 hPa 0,0 l/m 0,0 km/h N 6,9 C 9,5 C 0,0 km/h
19.05.2013 04:00 8,7 C 84 % 1008,1 hPa 0,0 l/m 0,0 km/h N 6,2 C 8,7 C 0,0 km/h
19.05.2013 05:00 8,1 C 83 % 1007,7 hPa 0,0 l/m 0,0 km/h N 5,5 C 8,1 C 0,0 km/h
19.05.2013 06:00 8,7 C 81 % 1007,6 hPa 0,0 l/m 0,2 km/h N 5,6 C 8,7 C 2,4 km/h
19.05.2013 07:00 11,3 C 80 % 1007,6 hPa 0,0 l/m 1,0 km/h N 8,0 C 11,3 C 5,2 km/h
19.05.2013 08:00 14,6 C 79 % 1007,6 hPa 0,0 l/m 0,7 km/h N 10,9 C 14,6 C 5,2 km/h
19.05.2013 09:00 18,9 C 65 % 1007,2 hPa 0,0 l/m 1,8 km/h N 12,2 C 18,9 C 9,3 km/h
19.05.2013 10:00 22,1 C 51 % 1006,6 hPa 0,0 l/m 9,5 km/h N 11,3 C 21,1 C 26,6 km/h
19.05.2013 11:00 23,6 C 46 % 1006,3 hPa 0,0 l/m 8,8 km/h N 11,0 C 22,9 C 24,9 km/h
19.05.2013 12:00 24,8 C 43 % 1006,0 hPa 0,0 l/m 14,2 km/h N 11,4 C 23,2 C 33,0 km/h
19.05.2013 13:00 25,4 C 45 % 1006,2 hPa 0,0 l/m 14,3 km/h N 12,5 C 23,9 C 31,8 km/h
19.05.2013 14:00 25,3 C 44 % 1006,0 hPa 0,0 l/m 13,6 km/h N 12,2 C 23,8 C 33,4 km/h
19.05.2013 15:00 26,2 C 42 % 1005,8 hPa 0,0 l/m 12,5 km/h N 12,3 C 25,1 C 31,4 km/h
19.05.2013 16:00 25,8 C 45 % 1005,5 hPa 0,0 l/m 12,9 km/h N 13,0 C 24,6 C 31,4 km/h
19.05.2013 17:00 25,5 C 47 % 1005,2 hPa 0,0 l/m 12,3 km/h N 13,4 C 24,3 C 30,2 km/h
19.05.2013 18:00 24,9 C 49 % 1004,6 hPa 0,0 l/m 7,1 km/h N 13,5 C 24,7 C 21,3 km/h
19.05.2013 19:00 24,0 C 53 % 1004,5 hPa 0,0 l/m 4,9 km/h N 13,8 C 24,0 C 16,9 km/h
19.05.2013 20:00 22,7 C 57 % 1004,8 hPa 0,0 l/m 3,7 km/h N 13,8 C 22,7 C 13,7 km/h
19.05.2013 21:00 21,1 C 64 % 1004,8 hPa 0,0 l/m 1,5 km/h N 14,0 C 21,1 C 5,7 km/h
19.05.2013 22:00 19,1 C 70 % 1005,3 hPa 0,0 l/m 0,6 km/h N 13,4 C 19,1 C 4,8 km/h
19.05.2013 23:00 16,9 C 70 % 1007,4 hPa 0,0 l/m 5,4 km/h N 11,3 C 16,8 C 17,7 km/h
Min-Datum _ 15.05.13 19.05.13 17.05.13 - 14.05.13 - 13.05.13 13.05.13 14.05.13
_ Min-Zeit 05:30 11:30 02:45 - 03:30 - 07:45 04:45 03:45
Minimum _ 7,3 C 41 % 1000,5 hPa - 0,0 km/h - 3,7 C 3,3 C 0,0 km/h
Max-Datum _ 19.05.13 13.05.13 13.05.13 17.05.13 16.05.13 - 18.05.13 19.05.13 13.05.13
_ Max-Zeit 15:45 22:45 08:30 22:15 13:15 - 16:30 15:45 06:15
Maximum _ 26,3 C 84 % 1018,0 hPa 2,3 l/m 18,5 km/h
N
- 14,7 C 25,4 C 46,7 km/h
N
Durchschnitt _ 16,3 C 67 % 1007,9 hPa #9,1 l/m 6,1 km/h N 9,9 C 15,5 C 16,7 km/h